Time;durP1;ratioP1;P1;durP2;ratioP2;P2;SDS_P1;SDS_P2;PMS_P1;PMS_P2;Temp;Humidity;BMP_temperature;BMP_pressure;BME280_temperature;BME280_humidity;BME280_pressure;Samples;Min_cycle;Max_cycle;Signal;HPM_P1;HPM_P2
2021/11/28 00:00:53;;;;;;;2.72;1.42;;;4.20;92.90;;;;;;6245267;22;20011;-82
2021/11/28 00:03:20;;;;;;;2.22;1.10;;;4.30;93.20;;;;;;6246718;22;20012;-83
2021/11/28 00:05:57;;;;;;;2.88;1.00;;;4.20;92.90;;;;;;6248298;22;20019;-82
2021/11/28 00:14:07;;;;;;;1.98;1.10;;;4.20;92.90;;;;;;6256212;22;20028;-83
2021/11/28 00:16:33;;;;;;;2.15;1.20;;;4.20;92.90;;;;;;6225556;22;20046;-83
2021/11/28 00:18:59;;;;;;;1.88;1.10;;;4.30;92.90;;;;;;6197526;22;19999;-83
2021/11/28 00:21:25;;;;;;;2.30;0.98;;;4.30;92.90;;;;;;6222737;22;20004;-83
2021/11/28 00:23:51;;;;;;;1.38;0.85;;;4.30;92.90;;;;;;6277273;22;20019;-82
2021/11/28 00:26:17;;;;;;;1.73;1.08;;;4.40;92.90;;;;;;6248425;22;20007;-83
2021/11/28 00:28:43;;;;;;;2.92;1.50;;;4.30;92.90;;;;;;6223043;22;20007;-83
2021/11/28 00:31:10;;;;;;;2.08;1.08;;;4.30;92.90;;;;;;6200119;22;20027;-83
2021/11/28 00:33:36;;;;;;;1.52;0.77;;;4.20;92.80;;;;;;6222608;22;20061;-83
2021/11/28 00:36:02;;;;;;;1.77;1.00;;;4.20;92.90;;;;;;6222914;22;19995;-83
2021/11/28 00:38:28;;;;;;;2.47;1.00;;;4.20;92.90;;;;;;6221652;22;20011;-83
2021/11/28 00:40:54;;;;;;;1.25;0.60;;;4.40;93.00;;;;;;6247706;22;20016;-83
2021/11/28 00:43:20;;;;;;;1.10;0.80;;;4.30;92.90;;;;;;6222537;22;19999;-82
2021/11/28 00:45:46;;;;;;;1.23;0.68;;;4.20;92.90;;;;;;6248122;22;20008;-83
2021/11/28 00:48:13;;;;;;;1.08;0.63;;;4.20;92.90;;;;;;6222470;22;20335;-82
2021/11/28 00:50:47;;;;;;;2.38;1.10;;;4.40;92.90;;;;;;6275197;22;20103;-83
2021/11/28 00:53:16;;;;;;;1.58;0.85;;;4.40;92.90;;;;;;6224066;22;20331;-83
2021/11/28 00:55:42;;;;;;;1.92;0.95;;;4.30;92.90;;;;;;6219859;22;20317;-83
2021/11/28 00:58:07;;;;;;;1.42;0.80;;;4.30;92.90;;;;;;6199077;22;20022;-83
2021/11/28 01:00:33;;;;;;;1.13;0.80;;;4.30;92.90;;;;;;6246742;22;20008;-83
2021/11/28 01:02:59;;;;;;;1.42;0.68;;;4.30;92.90;;;;;;6222360;22;20426;-83
2021/11/28 01:05:25;;;;;;;1.85;0.93;;;4.30;92.90;;;;;;6197384;22;20090;-83
2021/11/28 01:07:51;;;;;;;0.73;0.60;;;4.30;92.90;;;;;;6222223;22;20494;-83
2021/11/28 01:10:17;;;;;;;1.48;0.80;;;4.40;92.90;;;;;;6247603;22;20296;-82
2021/11/28 01:12:43;;;;;;;1.30;0.85;;;4.30;92.90;;;;;;6222275;22;19995;-82
2021/11/28 01:15:11;;;;;;;1.10;0.80;;;4.40;92.90;;;;;;6197355;22;20015;-82
2021/11/28 01:17:38;;;;;;;1.02;0.80;;;4.40;92.90;;;;;;6222858;22;20011;-82
2021/11/28 01:20:06;;;;;;;1.10;0.73;;;4.40;92.90;;;;;;6202474;22;20028;-83
2021/11/28 01:22:32;;;;;;;2.22;1.25;;;4.40;92.90;;;;;;6222180;22;20000;-82
2021/11/28 01:24:58;;;;;;;1.48;0.93;;;4.40;92.90;;;;;;6223589;22;20039;-82
2021/11/28 01:27:24;;;;;;;2.13;1.10;;;4.40;92.90;;;;;;6247320;22;20086;-82
2021/11/28 01:29:50;;;;;;;1.92;1.00;;;4.40;93.00;;;;;;6222806;22;20007;-82
2021/11/28 01:32:16;;;;;;;0.68;0.57;;;4.30;92.90;;;;;;6248288;22;20000;-82
2021/11/28 01:34:42;;;;;;;1.67;0.90;;;4.40;92.90;;;;;;6197093;22;19996;-82
2021/11/28 01:37:07;;;;;;;0.77;0.63;;;4.40;92.90;;;;;;6199054;22;20038;-82
2021/11/28 01:39:34;;;;;;;1.08;0.75;;;4.40;92.90;;;;;;6222288;22;20043;-82
2021/11/28 01:42:00;;;;;;;1.38;0.90;;;4.30;92.90;;;;;;6246974;22;20026;-82
2021/11/28 01:44:26;;;;;;;1.17;0.80;;;4.30;92.90;;;;;;6274190;22;20018;-82
2021/11/28 01:46:52;;;;;;;1.33;0.80;;;4.30;92.90;;;;;;6222111;22;20003;-82
2021/11/28 01:49:20;;;;;;;1.00;0.57;;;4.40;93.00;;;;;;6247348;22;20327;-82
2021/11/28 01:51:47;;;;;;;1.05;0.70;;;4.40;92.90;;;;;;6222493;22;20019;-82
2021/11/28 01:54:14;;;;;;;1.20;0.70;;;4.40;92.90;;;;;;6247564;22;20095;-82
2021/11/28 01:56:42;;;;;;;1.67;0.90;;;4.40;92.90;;;;;;6222174;22;19996;-82
2021/11/28 01:59:09;;;;;;;1.42;0.90;;;4.40;93.00;;;;;;6222229;22;20418;-82
2021/11/28 02:01:35;;;;;;;1.10;0.77;;;4.30;93.00;;;;;;6247478;22;20075;-82
2021/11/28 02:04:02;;;;;;;1.88;0.93;;;4.30;93.00;;;;;;6249425;22;20010;-82
2021/11/28 02:06:28;;;;;;;1.80;0.90;;;4.30;93.00;;;;;;6246814;22;19997;-82
2021/11/28 02:08:55;;;;;;;1.52;1.00;;;4.20;93.00;;;;;;6244653;22;20016;-82
2021/11/28 02:11:21;;;;;;;3.45;1.83;;;4.30;93.10;;;;;;6248191;22;20416;-83
2021/11/28 02:13:47;;;;;;;4.80;2.00;;;4.30;93.00;;;;;;6247474;22;20032;-83
2021/11/28 02:16:14;;;;;;;3.75;1.80;;;4.20;93.00;;;;;;6198123;22;20034;-82
2021/11/28 02:18:41;;;;;;;2.70;1.40;;;4.10;93.00;;;;;;6198170;22;20010;-82
2021/11/28 02:21:08;;;;;;;2.65;1.50;;;4.20;93.10;;;;;;6248913;22;20419;-82
2021/11/28 02:23:35;;;;;;;2.60;1.40;;;4.20;93.10;;;;;;6197620;22;20012;-82
2021/11/28 02:26:06;;;;;;;2.53;1.30;;;4.20;93.10;;;;;;6275583;22;20037;-82
2021/11/28 02:28:34;;;;;;;1.75;1.08;;;4.30;93.10;;;;;;6275349;22;20019;-82
2021/11/28 02:31:00;;;;;;;2.13;1.02;;;4.20;93.00;;;;;;6247226;22;20436;-82
2021/11/28 02:33:26;;;;;;;3.97;1.70;;;4.20;93.00;;;;;;6223368;22;20004;-83
2021/11/28 02:35:52;;;;;;;2.22;1.27;;;4.20;93.00;;;;;;6225938;22;20007;-82
2021/11/28 02:38:17;;;;;;;2.38;1.30;;;4.30;93.00;;;;;;6196745;22;20034;-82
2021/11/28 02:40:44;;;;;;;3.83;1.65;;;4.30;93.10;;;;;;6248731;22;20012;-82
2021/11/28 02:43:11;;;;;;;2.80;1.23;;;4.20;93.00;;;;;;6245200;22;20095;-82
2021/11/28 02:45:38;;;;;;;1.98;1.20;;;4.30;93.10;;;;;;6248393;22;20387;-82
2021/11/28 02:48:09;;;;;;;2.35;1.30;;;4.20;93.10;;;;;;6223657;22;20020;-82
2021/11/28 02:50:35;;;;;;;2.20;1.23;;;4.40;93.10;;;;;;6198764;22;19996;-82
2021/11/28 02:53:05;;;;;;;1.83;1.08;;;4.20;93.00;;;;;;6248778;22;20081;-82
2021/11/28 02:55:37;;;;;;;1.45;0.80;;;4.30;93.00;;;;;;6248345;22;20083;-82
2021/11/28 02:58:04;;;;;;;2.13;1.23;;;4.30;93.00;;;;;;6198352;22;19996;-82
2021/11/28 03:00:34;;;;;;;2.22;1.08;;;4.30;93.00;;;;;;6198239;22;20415;-82
2021/11/28 03:02:59;;;;;;;1.33;0.80;;;4.20;93.00;;;;;;6221296;22;20058;-82
2021/11/28 03:05:26;;;;;;;2.13;1.05;;;4.20;93.00;;;;;;6245378;22;20000;-82
2021/11/28 03:07:52;;;;;;;2.67;1.35;;;4.20;93.10;;;;;;6222597;22;20011;-82
2021/11/28 03:10:35;;;;;;;2.28;1.17;;;4.10;93.10;;;;;;6198086;22;20000;-82
2021/11/28 03:13:06;;;;;;;2.38;1.40;;;4.20;93.10;;;;;;6275363;22;20014;-82
2021/11/28 03:15:31;;;;;;;2.15;1.08;;;4.10;93.10;;;;;;6198583;22;20399;-82
2021/11/28 03:17:57;;;;;;;1.48;0.90;;;4.10;93.10;;;;;;6222663;22;20038;-82
2021/11/28 03:20:23;;;;;;;1.42;0.90;;;4.20;93.10;;;;;;6248734;22;20012;-82
2021/11/28 03:22:50;;;;;;;1.77;0.80;;;4.20;93.10;;;;;;6197568;22;20072;-82
2021/11/28 03:25:21;;;;;;;1.70;1.10;;;4.20;93.10;;;;;;6248667;22;20327;-82
2021/11/28 03:27:47;;;;;;;1.70;1.07;;;4.20;93.10;;;;;;6223078;22;20022;-81
2021/11/28 03:30:15;;;;;;;2.25;1.10;;;4.20;93.10;;;;;;6248063;22;20027;-81
2021/11/28 03:32:41;;;;;;;2.03;1.20;;;4.10;93.10;;;;;;6250326;22;20081;-82
2021/11/28 03:35:08;;;;;;;2.13;1.20;;;4.20;93.10;;;;;;6224788;22;20837;-82
2021/11/28 03:37:34;;;;;;;3.13;1.40;;;4.20;93.10;;;;;;6223034;22;20007;-82
2021/11/28 03:40:02;;;;;;;4.20;1.30;;;4.20;93.10;;;;;;6225481;22;20045;-82
2021/11/28 03:42:27;;;;;;;1.90;1.10;;;4.20;93.10;;;;;;6198302;22;20041;-81
2021/11/28 03:44:53;;;;;;;2.05;1.20;;;4.10;93.10;;;;;;6222811;22;20347;-82
2021/11/28 03:47:19;;;;;;;2.70;1.33;;;4.20;93.10;;;;;;6223172;22;20036;-82
2021/11/28 03:49:45;;;;;;;2.45;1.30;;;4.10;93.10;;;;;;6208427;22;20000;-81
2021/11/28 03:52:11;;;;;;;2.85;1.48;;;4.20;93.10;;;;;;6247928;22;20003;-81
2021/11/28 03:54:37;;;;;;;4.97;2.20;;;4.20;93.40;;;;;;6277328;22;19996;-82
2021/11/28 03:57:06;;;;;;;3.20;1.40;;;4.30;93.10;;;;;;6223082;22;20010;-82
2021/11/28 03:59:31;;;;;;;2.40;1.25;;;4.20;93.10;;;;;;6250648;22;20004;-82
2021/11/28 04:01:58;;;;;;;1.80;0.95;;;4.10;93.10;;;;;;6277336;22;20027;-82
2021/11/28 04:04:24;;;;;;;3.55;1.50;;;4.20;93.10;;;;;;6248279;22;20007;-81
2021/11/28 04:06:50;;;;;;;1.83;0.90;;;4.20;93.10;;;;;;6247958;22;20003;-82
2021/11/28 04:09:16;;;;;;;2.78;1.42;;;4.20;93.10;;;;;;6197799;22;20054;-81
2021/11/28 04:11:42;;;;;;;2.80;1.40;;;4.20;93.10;;;;;;6222661;22;20008;-82
2021/11/28 04:14:08;;;;;;;2.05;1.00;;;4.10;93.10;;;;;;6247954;22;20057;-82
2021/11/28 04:16:34;;;;;;;2.25;0.90;;;4.10;93.10;;;;;;6275085;22;20032;-81
2021/11/28 04:18:59;;;;;;;2.45;1.17;;;4.10;93.10;;;;;;6248663;22;20865;-82
2021/11/28 04:21:26;;;;;;;1.58;0.82;;;4.10;93.10;;;;;;6196567;22;20435;-82
2021/11/28 04:23:53;;;;;;;1.73;0.90;;;4.20;93.10;;;;;;6247961;22;20499;-81
2021/11/28 04:26:20;;;;;;;2.42;1.00;;;4.10;93.10;;;;;;6248433;22;20008;-82
2021/11/28 04:28:46;;;;;;;2.20;1.20;;;4.10;93.10;;;;;;6247967;22;20019;-81
2021/11/28 04:31:12;;;;;;;2.65;1.02;;;4.10;93.10;;;;;;6249326;22;20053;-81
2021/11/28 04:33:38;;;;;;;2.03;1.00;;;4.10;93.10;;;;;;6245429;22;20417;-82
2021/11/28 04:36:04;;;;;;;3.38;1.48;;;4.20;93.10;;;;;;6248455;22;20320;-82
2021/11/28 04:38:30;;;;;;;2.90;1.30;;;4.20;93.10;;;;;;6248626;22;20034;-81
2021/11/28 04:40:56;;;;;;;2.30;1.38;;;4.10;93.10;;;;;;6274865;22;20003;-81
2021/11/28 04:43:22;;;;;;;1.90;0.93;;;4.30;93.10;;;;;;6209210;22;20032;-82
2021/11/28 04:45:48;;;;;;;1.92;1.02;;;4.10;93.10;;;;;;6222490;22;20015;-81
2021/11/28 04:48:14;;;;;;;2.10;1.13;;;4.10;93.10;;;;;;6247733;22;20857;-82
2021/11/28 04:50:40;;;;;;;2.25;1.10;;;4.10;93.10;;;;;;6220622;22;19996;-81
2021/11/28 04:53:06;;;;;;;3.25;1.15;;;4.10;93.10;;;;;;6197750;22;20015;-82
2021/11/28 04:55:32;;;;;;;2.20;1.30;;;4.10;93.10;;;;;;6249861;22;20054;-82
2021/11/28 04:57:58;;;;;;;1.83;1.00;;;4.20;93.10;;;;;;6197335;22;19999;-82
2021/11/28 05:00:25;;;;;;;3.75;1.50;;;4.10;93.00;;;;;;6269366;22;20058;-82
2021/11/28 05:02:53;;;;;;;2.63;1.10;;;4.20;93.10;;;;;;6244669;22;20052;-82
2021/11/28 05:05:19;;;;;;;3.95;1.20;;;4.20;93.10;;;;;;6247487;22;20020;-82
2021/11/28 05:07:44;;;;;;;1.88;0.95;;;4.20;93.00;;;;;;6279192;22;20379;-82
2021/11/28 05:10:11;;;;;;;2.40;1.27;;;4.00;93.00;;;;;;6274817;22;20008;-82
2021/11/28 05:12:37;;;;;;;3.28;1.40;;;4.20;93.00;;;;;;6247539;22;20335;-82
2021/11/28 05:15:03;;;;;;;3.00;1.40;;;4.20;93.00;;;;;;6275243;22;20079;-82
2021/11/28 05:17:29;;;;;;;2.38;1.02;;;4.20;93.00;;;;;;6220999;22;20315;-82
2021/11/28 05:19:55;;;;;;;1.90;1.00;;;4.20;93.00;;;;;;6219918;22;20039;-82
2021/11/28 05:22:21;;;;;;;1.70;0.88;;;4.20;93.00;;;;;;6247766;22;20077;-82
2021/11/28 05:24:50;;;;;;;2.42;1.15;;;4.20;93.00;;;;;;6245699;22;20331;-82
2021/11/28 05:27:17;;;;;;;1.55;0.90;;;4.20;93.00;;;;;;6224355;22;20004;-82
2021/11/28 05:29:42;;;;;;;1.60;0.98;;;4.20;93.00;;;;;;6219628;22;20041;-82
2021/11/28 05:32:08;;;;;;;2.10;1.13;;;4.10;93.00;;;;;;6221955;22;19996;-83
2021/11/28 05:34:35;;;;;;;1.52;0.80;;;4.10;93.00;;;;;;6196300;22;20008;-82
2021/11/28 05:37:00;;;;;;;1.25;0.77;;;4.10;93.00;;;;;;6245302;22;20075;-82
2021/11/28 05:39:26;;;;;;;1.52;0.80;;;4.00;93.10;;;;;;6247856;22;20432;-82
2021/11/28 05:41:52;;;;;;;1.35;0.70;;;4.00;93.10;;;;;;6274937;22;20000;-81
2021/11/28 05:44:18;;;;;;;1.88;1.00;;;4.00;93.10;;;;;;6248325;22;20027;-82
2021/11/28 05:46:44;;;;;;;2.35;0.70;;;4.00;93.10;;;;;;6195391;22;20010;-82
2021/11/28 05:49:10;;;;;;;1.70;0.88;;;3.90;93.10;;;;;;6223561;22;20079;-82
2021/11/28 05:51:35;;;;;;;3.60;1.65;;;3.80;93.10;;;;;;6257896;22;20011;-83
2021/11/28 05:54:01;;;;;;;1.48;0.90;;;3.90;93.10;;;;;;6208824;22;20082;-82
2021/11/28 05:56:29;;;;;;;2.50;1.25;;;3.80;93.10;;;;;;6221708;22;20004;-82
2021/11/28 05:58:56;;;;;;;2.22;1.13;;;3.80;93.20;;;;;;6199369;22;20069;-82
2021/11/28 06:01:22;;;;;;;1.15;0.80;;;3.70;93.20;;;;;;6224056;22;20019;-82
2021/11/28 06:03:47;;;;;;;1.55;0.93;;;3.70;93.20;;;;;;6198681;22;20094;-82
2021/11/28 06:06:13;;;;;;;1.77;0.98;;;3.60;93.20;;;;;;6195766;22;20054;-81
2021/11/28 06:08:41;;;;;;;1.65;0.88;;;3.50;93.20;;;;;;6248135;22;20011;-82
2021/11/28 06:11:07;;;;;;;1.98;0.95;;;3.50;93.20;;;;;;6248899;22;20007;-81
2021/11/28 06:13:32;;;;;;;1.60;0.88;;;3.50;93.30;;;;;;6250803;22;20450;-82
2021/11/28 06:15:58;;;;;;;1.60;0.88;;;3.30;93.30;;;;;;6248677;22;20019;-81
2021/11/28 06:18:24;;;;;;;2.08;0.95;;;3.50;93.30;;;;;;6251518;22;20001;-82
2021/11/28 06:20:49;;;;;;;1.40;1.00;;;3.50;93.40;;;;;;6195911;22;20000;-81
2021/11/28 06:23:15;;;;;;;2.05;1.10;;;3.30;93.30;;;;;;6248385;22;20007;-81
2021/11/28 06:25:41;;;;;;;3.53;1.58;;;3.20;93.40;;;;;;6276898;22;20011;-81
2021/11/28 06:28:07;;;;;;;2.30;0.98;;;3.10;93.40;;;;;;6275908;22;20011;-81
2021/11/28 06:30:33;;;;;;;3.00;1.30;;;3.10;93.40;;;;;;6248375;22;20008;-81
2021/11/28 06:32:59;;;;;;;1.73;0.85;;;3.00;93.40;;;;;;6222846;22;20022;-80
2021/11/28 06:35:25;;;;;;;2.40;1.00;;;3.00;93.40;;;;;;6248422;22;20012;-80
2021/11/28 06:37:52;;;;;;;1.70;0.80;;;2.90;93.40;;;;;;6248952;22;20308;-81
2021/11/28 06:40:18;;;;;;;2.20;0.80;;;2.90;93.50;;;;;;6219919;22;20008;-80
2021/11/28 06:42:44;;;;;;;1.48;0.90;;;2.90;93.50;;;;;;6279837;22;20015;-80
2021/11/28 06:45:11;;;;;;;1.67;0.75;;;2.70;93.50;;;;;;6248058;22;20008;-80
2021/11/28 06:47:36;;;;;;;1.23;0.90;;;2.70;93.50;;;;;;6248921;22;20004;-80
2021/11/28 06:50:03;;;;;;;1.45;0.82;;;2.70;93.50;;;;;;6224299;22;20019;-80
2021/11/28 06:52:28;;;;;;;1.15;0.65;;;2.60;93.50;;;;;;6223147;22;20036;-80
2021/11/28 06:54:54;;;;;;;1.15;0.60;;;2.60;93.50;;;;;;6248655;22;20007;-79
2021/11/28 06:57:20;;;;;;;1.45;0.68;;;2.50;93.50;;;;;;6248651;22;20085;-79
2021/11/28 06:59:45;;;;;;;2.05;0.90;;;2.50;93.80;;;;;;6276782;22;20067;-79
2021/11/28 07:02:12;;;;;;;0.90;0.68;;;2.50;93.60;;;;;;6247220;22;20008;-79
2021/11/28 07:04:39;;;;;;;3.03;1.35;;;2.40;93.50;;;;;;6222712;22;20014;-79
2021/11/28 07:07:05;;;;;;;2.80;1.20;;;2.30;93.50;;;;;;6247868;22;20439;-79
2021/11/28 07:09:31;;;;;;;2.53;1.25;;;2.20;93.50;;;;;;6247287;22;20000;-79
2021/11/28 07:11:57;;;;;;;2.85;1.30;;;2.20;93.80;;;;;;6197630;22;19999;-79
2021/11/28 07:14:23;;;;;;;2.05;1.00;;;2.20;93.60;;;;;;6220046;22;20035;-79
2021/11/28 07:16:49;;;;;;;1.85;1.00;;;2.30;93.70;;;;;;6247383;22;20484;-79
2021/11/28 07:19:15;;;;;;;2.85;1.45;;;2.20;93.60;;;;;;6221530;22;20007;-80
2021/11/28 07:21:40;;;;;;;2.67;1.30;;;2.30;93.70;;;;;;6222714;22;20320;-80
2021/11/28 07:24:06;;;;;;;2.92;1.30;;;2.30;93.60;;;;;;6275312;22;19996;-80
2021/11/28 07:26:32;;;;;;;3.47;1.48;;;2.30;93.60;;;;;;6248523;22;20006;-79
2021/11/28 07:28:58;;;;;;;3.08;1.50;;;2.40;93.60;;;;;;6275702;22;20098;-80
2021/11/28 07:31:24;;;;;;;7.40;1.65;;;2.40;93.60;;;;;;6275213;22;20006;-80
2021/11/28 07:33:49;;;;;;;3.22;1.30;;;2.40;93.50;;;;;;6222604;22;20330;-80
2021/11/28 07:36:15;;;;;;;4.00;1.80;;;2.40;93.50;;;;;;6222784;22;20008;-80
2021/11/28 07:38:44;;;;;;;3.05;1.48;;;2.40;93.40;;;;;;6197703;22;20027;-81
2021/11/28 07:41:10;;;;;;;2.67;1.10;;;2.50;93.40;;;;;;6249122;22;20335;-80
2021/11/28 07:43:36;;;;;;;4.55;1.52;;;2.50;93.40;;;;;;6196879;22;20018;-81
2021/11/28 07:46:02;;;;;;;3.13;1.48;;;2.50;93.40;;;;;;6222880;22;20047;-80
2021/11/28 07:48:28;;;;;;;2.95;0.93;;;2.60;93.40;;;;;;6221970;22;20363;-81
2021/11/28 07:50:53;;;;;;;2.75;1.13;;;2.60;93.40;;;;;;6248219;22;20482;-80
2021/11/28 07:53:19;;;;;;;2.95;1.38;;;2.70;93.40;;;;;;6248125;22;20035;-80
2021/11/28 07:55:45;;;;;;;4.47;1.88;;;2.70;93.30;;;;;;6274987;22;20011;-81
2021/11/28 07:58:11;;;;;;;3.47;1.70;;;2.70;93.30;;;;;;6248743;22;20003;-81
2021/11/28 08:00:37;;;;;;;3.72;1.67;;;2.70;93.30;;;;;;6199118;22;20016;-80
2021/11/28 08:03:03;;;;;;;3.25;1.42;;;2.80;93.30;;;;;;6248156;22;20338;-80
2021/11/28 08:05:31;;;;;;;4.00;1.75;;;2.70;93.20;;;;;;6222777;22;20003;-81
2021/11/28 08:07:58;;;;;;;3.22;1.50;;;2.70;93.20;;;;;;6247574;22;20016;-80
2021/11/28 08:10:24;;;;;;;3.55;1.35;;;2.70;93.30;;;;;;6224318;22;20090;-80
2021/11/28 08:12:50;;;;;;;4.18;1.90;;;2.70;93.30;;;;;;6275019;22;20004;-81
2021/11/28 08:15:18;;;;;;;3.85;1.60;;;2.70;93.30;;;;;;6247885;22;20076;-80
2021/11/28 08:17:45;;;;;;;2.58;1.00;;;2.60;93.20;;;;;;6223583;22;20454;-81
2021/11/28 08:20:12;;;;;;;2.17;1.08;;;2.60;93.30;;;;;;6223110;22;20010;-81
2021/11/28 08:22:39;;;;;;;3.10;1.38;;;2.60;93.30;;;;;;6197875;22;20573;-81
2021/11/28 08:25:08;;;;;;;2.60;1.27;;;2.60;93.30;;;;;;6222590;22;20057;-82
2021/11/28 08:27:34;;;;;;;3.40;1.30;;;2.60;93.30;;;;;;6221888;22;20139;-79
2021/11/28 08:30:03;;;;;;;2.88;1.35;;;2.70;93.30;;;;;;6230863;22;20015;-81
2021/11/28 08:32:29;;;;;;;3.33;1.35;;;2.60;93.30;;;;;;6200867;22;20019;-81
2021/11/28 08:34:55;;;;;;;2.00;1.00;;;2.60;93.30;;;;;;6275636;22;20011;-81
2021/11/28 08:37:21;;;;;;;1.83;0.98;;;2.50;93.30;;;;;;6248085;22;20019;-81
2021/11/28 08:39:47;;;;;;;2.67;1.33;;;2.60;93.30;;;;;;6248966;22;20007;-81
2021/11/28 08:42:13;;;;;;;2.08;1.25;;;2.60;93.30;;;;;;6250771;22;20015;-81
2021/11/28 08:44:39;;;;;;;2.78;1.02;;;2.60;93.30;;;;;;6197102;22;20082;-81
2021/11/28 08:47:05;;;;;;;2.95;0.95;;;2.70;93.40;;;;;;6247964;22;20038;-81
2021/11/28 08:49:31;;;;;;;1.75;1.00;;;2.60;93.40;;;;;;6222652;22;20323;-81
2021/11/28 08:51:57;;;;;;;2.75;1.08;;;2.70;93.40;;;;;;6222726;22;20003;-81
2021/11/28 08:54:22;;;;;;;3.92;1.70;;;2.70;93.30;;;;;;6247793;22;20007;-81
2021/11/28 08:56:51;;;;;;;1.60;1.02;;;2.80;93.30;;;;;;6198293;22;20052;-81
2021/11/28 08:59:18;;;;;;;2.92;1.42;;;2.70;93.50;;;;;;6246041;22;20004;-82
2021/11/28 09:01:44;;;;;;;4.65;2.10;;;2.70;93.20;;;;;;6247885;22;20000;-83
2021/11/28 09:04:09;;;;;;;4.22;1.60;;;2.80;93.20;;;;;;6196497;22;20008;-81
2021/11/28 09:06:35;;;;;;;2.65;1.40;;;2.80;93.20;;;;;;6222418;22;19995;-81
2021/11/28 09:09:03;;;;;;;3.25;1.38;;;2.80;93.30;;;;;;6251149;22;20356;-81
2021/11/28 09:11:29;;;;;;;2.80;1.33;;;2.80;93.20;;;;;;6225086;22;20008;-82
2021/11/28 09:13:54;;;;;;;4.00;1.60;;;2.90;93.20;;;;;;6247757;22;20082;-81
2021/11/28 09:16:20;;;;;;;3.55;1.38;;;2.90;93.20;;;;;;6247727;22;20031;-81
2021/11/28 09:18:51;;;;;;;3.45;1.30;;;2.90;93.20;;;;;;6221862;22;20094;-81
2021/11/28 09:21:17;;;;;;;2.70;1.27;;;2.90;93.10;;;;;;6274601;22;20010;-81
2021/11/28 09:26:25;;;;;;;3.50;1.75;;;3.00;93.10;;;;;;6229170;22;20396;-81
2021/11/28 09:28:52;;;;;;;3.33;1.63;;;3.00;93.00;;;;;;6219696;22;20047;-81
2021/11/28 09:31:18;;;;;;;3.00;1.45;;;3.00;93.10;;;;;;6224480;22;20004;-81
2021/11/28 09:33:44;;;;;;;1.98;1.20;;;3.00;93.10;;;;;;6247345;22;20004;-81
2021/11/28 09:36:09;;;;;;;4.13;1.80;;;3.10;93.20;;;;;;6275205;22;20010;-81
2021/11/28 09:38:36;;;;;;;3.38;1.52;;;3.20;93.10;;;;;;6244825;22;20012;-81
2021/11/28 09:41:06;;;;;;;3.67;1.58;;;3.20;93.00;;;;;;6221344;22;20019;-81
2021/11/28 09:43:34;;;;;;;3.70;1.48;;;3.30;93.00;;;;;;6221785;22;20043;-81
2021/11/28 09:46:03;;;;;;;1.65;0.90;;;3.40;93.00;;;;;;6247442;22;20007;-81
2021/11/28 09:48:32;;;;;;;2.50;1.30;;;3.40;92.90;;;;;;6223909;22;20051;-81
2021/11/28 09:50:57;;;;;;;2.70;1.20;;;3.50;92.90;;;;;;6221628;22;20026;-81
2021/11/28 09:53:24;;;;;;;4.25;1.80;;;3.60;92.90;;;;;;6248016;22;20427;-82
2021/11/28 09:55:50;;;;;;;3.67;1.45;;;3.70;92.90;;;;;;6197323;22;20000;-80
2021/11/28 09:58:17;;;;;;;3.03;1.38;;;3.80;92.80;;;;;;6247258;22;20494;-81
2021/11/28 10:00:43;;;;;;;3.20;1.60;;;3.90;92.70;;;;;;6276441;22;20083;-80
2021/11/28 10:03:08;;;;;;;2.95;1.48;;;4.00;92.70;;;;;;6249672;22;19988;-80
2021/11/28 10:05:34;;;;;;;4.00;1.60;;;4.00;92.60;;;;;;6247650;22;20087;-80
2021/11/28 10:08:01;;;;;;;2.95;1.48;;;4.10;92.70;;;;;;6195395;22;20091;-81
2021/11/28 10:10:27;;;;;;;3.42;1.73;;;4.00;92.60;;;;;;6221948;22;20003;-81
2021/11/28 10:12:54;;;;;;;2.33;1.30;;;4.10;92.60;;;;;;6222270;22;20084;-80
2021/11/28 10:15:23;;;;;;;2.60;1.50;;;4.10;92.60;;;;;;6222012;22;20016;-81
2021/11/28 10:17:49;;;;;;;2.95;1.48;;;4.20;92.60;;;;;;6248425;22;20339;-80
2021/11/28 10:20:19;;;;;;;3.80;1.58;;;4.20;92.60;;;;;;6248455;22;20012;-81
2021/11/28 10:22:46;;;;;;;4.32;1.63;;;4.20;92.50;;;;;;6274085;22;20011;-81
2021/11/28 10:25:21;;;;;;;3.67;2.05;;;4.20;92.50;;;;;;6221940;22;20022;-81
2021/11/28 10:27:51;;;;;;;2.97;1.58;;;4.20;92.60;;;;;;6274213;22;20022;-81
2021/11/28 10:30:30;;;;;;;3.92;1.80;;;4.20;92.70;;;;;;6274460;22;20011;-81
2021/11/28 10:33:06;;;;;;;3.42;1.50;;;4.30;92.70;;;;;;6225822;22;20336;-80
2021/11/28 10:35:31;;;;;;;2.63;1.23;;;4.30;92.70;;;;;;6223016;22;20003;-80
2021/11/28 10:37:57;;;;;;;3.83;1.83;;;4.30;92.70;;;;;;6224902;22;20008;-80
2021/11/28 10:40:26;;;;;;;3.17;1.55;;;4.30;92.70;;;;;;6223316;22;20004;-80
2021/11/28 10:43:11;;;;;;;5.13;1.95;;;4.30;92.70;;;;;;6248219;22;20004;-80
2021/11/28 10:45:39;;;;;;;4.20;1.67;;;4.40;92.70;;;;;;6247667;22;20008;-80
2021/11/28 10:48:07;;;;;;;3.50;1.45;;;4.40;92.70;;;;;;6223952;22;20081;-79
2021/11/28 10:50:36;;;;;;;3.25;1.50;;;4.50;92.70;;;;;;6224106;22;19996;-78
2021/11/28 10:53:15;;;;;;;3.03;1.67;;;4.60;92.70;;;;;;6275851;22;20000;-79
2021/11/28 10:55:45;;;;;;;2.47;1.08;;;4.50;92.60;;;;;;6225596;22;19996;-79
2021/11/28 10:58:14;;;;;;;3.58;1.48;;;4.60;92.70;;;;;;6249316;22;20004;-78
2021/11/28 11:01:05;;;;;;;2.67;1.20;;;4.60;92.70;;;;;;6248988;22;20019;-78
2021/11/28 11:03:36;;;;;;;2.78;1.45;;;4.60;92.70;;;;;;6246202;22;20012;-79
2021/11/28 11:06:19;;;;;;;3.55;1.55;;;4.60;92.60;;;;;;6275294;22;20016;-79
2021/11/28 11:08:47;;;;;;;2.65;1.38;;;4.60;92.60;;;;;;6223338;22;20042;-79
2021/11/28 11:11:15;;;;;;;3.55;1.70;;;4.70;92.70;;;;;;6198105;22;20004;-79
2021/11/28 11:13:54;;;;;;;3.70;1.63;;;4.70;92.70;;;;;;6223261;22;20035;-79
2021/11/28 11:16:34;;;;;;;2.00;1.20;;;4.80;92.70;;;;;;6275845;22;20133;-79
2021/11/28 11:19:28;;;;;;;2.28;1.50;;;4.90;92.60;;;;;;6275368;22;20006;-79
2021/11/28 11:22:29;;;;;;;2.28;1.48;;;4.90;92.60;;;;;;6248221;22;20049;-79
2021/11/28 11:25:00;;;;;;;3.22;1.45;;;4.90;92.60;;;;;;6275679;22;20011;-79
2021/11/28 11:27:31;;;;;;;3.65;1.77;;;5.10;92.60;;;;;;6247929;22;20008;-79
2021/11/28 11:30:03;;;;;;;2.55;1.25;;;5.10;92.60;;;;;;6224140;22;20004;-79
2021/11/28 11:32:45;;;;;;;4.25;1.92;;;5.10;92.60;;;;;;6224269;22;20000;-79
2021/11/28 11:35:22;;;;;;;3.65;1.80;;;5.20;92.50;;;;;;6222790;22;20320;-79
2021/11/28 11:37:49;;;;;;;4.13;1.58;;;5.20;92.50;;;;;;6223041;22;20721;-79
2021/11/28 11:40:19;;;;;;;2.80;1.52;;;5.20;92.40;;;;;;6197899;22;20007;-79
2021/11/28 11:42:46;;;;;;;3.30;1.60;;;5.30;92.50;;;;;;6247719;22;20012;-79
2021/11/28 11:45:17;;;;;;;4.72;2.00;;;5.30;92.50;;;;;;6275295;22;20000;-78
2021/11/28 11:47:44;;;;;;;3.05;1.38;;;5.30;92.50;;;;;;6222963;22;20061;-78
2021/11/28 11:50:13;;;;;;;2.90;1.40;;;5.40;92.50;;;;;;6222749;22;20829;-78
2021/11/28 11:52:39;;;;;;;5.05;1.80;;;5.50;92.40;;;;;;6247889;22;20439;-79
2021/11/28 11:55:15;;;;;;;3.50;1.67;;;5.60;92.40;;;;;;6217289;22;20000;-78
2021/11/28 11:58:15;;;;;;;3.30;1.88;;;5.70;92.30;;;;;;6274807;22;20023;-79
2021/11/28 12:00:59;;;;;;;2.38;1.20;;;5.80;92.30;;;;;;6274977;22;20022;-79
2021/11/28 12:03:25;;;;;;;4.95;2.42;;;5.70;92.20;;;;;;6275259;22;20384;-78
2021/11/28 12:05:54;;;;;;;5.05;2.22;;;5.80;92.30;;;;;;6275084;22;20046;-78
2021/11/28 12:08:23;;;;;;;5.32;2.17;;;5.80;92.30;;;;;;6274799;22;20030;-78
2021/11/28 12:11:12;;;;;;;2.90;1.60;;;5.80;92.30;;;;;;6245066;22;20012;-78
2021/11/28 12:13:52;;;;;;;2.05;1.10;;;5.70;92.30;;;;;;6275845;22;20438;-78
2021/11/28 12:16:20;;;;;;;2.42;1.20;;;5.70;92.30;;;;;;6248363;22;20027;-78
2021/11/28 12:18:49;;;;;;;2.38;1.25;;;5.80;92.40;;;;;;6248868;22;20418;-78
2021/11/28 12:21:18;;;;;;;2.90;1.48;;;5.80;92.40;;;;;;6275329;22;20014;-78
2021/11/28 12:24:09;;;;;;;3.17;1.33;;;5.80;92.30;;;;;;6198144;22;20011;-78
2021/11/28 12:26:39;;;;;;;2.47;1.40;;;5.80;92.40;;;;;;6275620;22;20018;-78
2021/11/28 12:29:22;;;;;;;2.90;1.33;;;5.80;92.40;;;;;;6275564;22;20082;-77
2021/11/28 12:31:54;;;;;;;3.08;1.45;;;5.70;92.30;;;;;;6248070;22;20078;-78
2021/11/28 12:34:23;;;;;;;3.35;1.48;;;5.90;92.40;;;;;;6248656;22;20007;-78
2021/11/28 12:36:54;;;;;;;2.45;1.30;;;5.80;92.40;;;;;;6275180;22;20035;-78
2021/11/28 12:39:38;;;;;;;2.30;1.20;;;5.70;92.40;;;;;;6275838;22;20314;-78
2021/11/28 12:42:08;;;;;;;4.03;2.00;;;5.60;92.40;;;;;;6223110;22;20030;-83
2021/11/28 12:44:38;;;;;;;3.35;1.50;;;5.70;92.50;;;;;;6198070;22;20003;-79
2021/11/28 12:47:21;;;;;;;2.63;1.35;;;5.60;92.40;;;;;;6247576;22;20004;-81
2021/11/28 12:49:58;;;;;;;3.20;1.30;;;5.60;92.40;;;;;;6222804;22;20018;-81
2021/11/28 12:52:33;;;;;;;1.45;0.82;;;5.70;92.40;;;;;;6221700;22;20106;-82
2021/11/28 12:55:12;;;;;;;2.50;1.10;;;5.60;92.40;;;;;;6173276;22;20021;-82
2021/11/28 12:58:06;;;;;;;2.33;0.95;;;5.70;92.30;;;;;;6213681;23;20412;-82
2021/11/28 13:00:36;;;;;;;1.45;0.80;;;5.60;92.30;;;;;;6219162;23;20012;-82
2021/11/28 13:03:23;;;;;;;1.38;0.80;;;5.50;92.30;;;;;;6217034;23;20429;-83
2021/11/28 13:05:55;;;;;;;0.93;0.50;;;5.50;92.30;;;;;;6172048;23;20008;-82
2021/11/28 13:08:30;;;;;;;0.57;0.47;;;5.40;92.40;;;;;;6189089;23;20015;-82
2021/11/28 13:10:58;;;;;;;0.43;0.40;;;5.40;92.40;;;;;;6164271;23;20451;-82